createdAt,value
2023-02-27T00:00:22.172Z,0.90
2023-02-27T00:02:51.216Z,0.90
2023-02-27T00:05:19.361Z,0.80
2023-02-27T00:07:46.493Z,0.80
2023-02-27T00:10:14.383Z,0.90
2023-02-27T00:12:41.704Z,0.70
2023-02-27T00:15:15.064Z,0.70
2023-02-27T00:17:42.209Z,0.70
2023-02-27T00:20:13.740Z,0.60
2023-02-27T00:22:41.509Z,0.60
2023-02-27T00:25:08.822Z,0.60
2023-02-27T00:27:37.006Z,0.60
2023-02-27T00:30:05.974Z,0.60
2023-02-27T00:32:33.214Z,0.50
2023-02-27T00:35:00.172Z,0.50
2023-02-27T00:37:27.029Z,0.40
2023-02-27T00:39:53.833Z,0.40
2023-02-27T00:42:20.790Z,0.40
2023-02-27T00:44:47.580Z,0.50
2023-02-27T00:47:14.590Z,0.30
2023-02-27T00:49:41.471Z,0.30
2023-02-27T00:52:09.641Z,0.30
2023-02-27T00:54:36.442Z,0.30
2023-02-27T00:57:03.301Z,0.30
2023-02-27T00:59:30.106Z,0.20
2023-02-27T01:01:57.267Z,0.20
2023-02-27T01:04:24.495Z,0.20
2023-02-27T01:06:51.302Z,0.20
2023-02-27T01:09:18.219Z,0.20
2023-02-27T01:11:45.204Z,0.20
2023-02-27T01:14:12.415Z,0.30
2023-02-27T01:16:39.270Z,0.10
2023-02-27T01:19:09.143Z,0.10
2023-02-27T01:21:36.027Z,0.00
2023-02-27T01:24:02.885Z,0.00
2023-02-27T01:26:29.753Z,0.00
2023-02-27T01:28:56.602Z,0.00
2023-02-27T01:31:23.478Z,0.00
2023-02-27T01:33:50.436Z,0.00
2023-02-27T01:36:17.294Z,0.00
2023-02-27T01:38:44.271Z,0.00
2023-02-27T01:41:11.074Z,0.00
2023-02-27T01:43:56.218Z,-0.10
2023-02-27T01:46:23.930Z,-0.10
2023-02-27T01:48:54.371Z,-0.10
2023-02-27T01:51:21.942Z,-0.10
2023-02-27T01:53:52.204Z,-0.20
2023-02-27T01:56:23.761Z,-0.20
2023-02-27T01:58:53.805Z,-0.20
2023-02-27T02:01:21.996Z,-0.20
2023-02-27T02:04:05.680Z,-0.20
2023-02-27T02:06:34.529Z,-0.20
2023-02-27T02:09:02.806Z,-0.20
2023-02-27T02:11:29.869Z,-0.30
2023-02-27T02:13:59.445Z,-0.30
2023-02-27T02:16:50.011Z,-0.30
2023-02-27T02:19:38.056Z,-0.30
2023-02-27T02:22:13.695Z,-0.30
2023-02-27T02:25:01.594Z,-0.30
2023-02-27T02:27:46.485Z,-0.40
2023-02-27T02:31:02.859Z,-0.40
2023-02-27T02:33:54.177Z,-0.40
2023-02-27T02:36:26.813Z,-0.40
2023-02-27T02:39:24.061Z,-0.40
2023-02-27T02:42:16.583Z,-0.50
2023-02-27T02:45:04.106Z,-0.50
2023-02-27T02:47:52.744Z,-0.50
2023-02-27T02:50:33.016Z,-0.50
2023-02-27T02:53:36.206Z,-0.50
2023-02-27T02:56:24.470Z,-0.50
2023-02-27T02:59:06.763Z,-0.50
2023-02-27T03:01:36.848Z,-0.60
2023-02-27T03:04:13.005Z,-0.60
2023-02-27T03:06:50.209Z,-0.50
2023-02-27T03:09:29.380Z,-0.60
2023-02-27T03:11:58.933Z,-0.60
2023-02-27T03:14:32.121Z,-0.60
2023-02-27T03:17:04.267Z,-0.60
2023-02-27T03:19:45.007Z,-0.60
2023-02-27T03:22:19.494Z,-0.70
2023-02-27T03:24:53.285Z,-0.60
2023-02-27T03:27:21.142Z,-0.70
2023-02-27T03:29:51.284Z,-0.70
2023-02-27T03:32:21.331Z,-0.70
2023-02-27T03:34:48.550Z,-0.70
2023-02-27T03:37:36.382Z,-0.70
2023-02-27T03:40:24.790Z,-0.70
2023-02-27T03:43:08.865Z,-0.70
2023-02-27T03:45:57.065Z,-0.70
2023-02-27T03:48:24.185Z,-0.80
2023-02-27T03:50:51.231Z,-0.80
2023-02-27T03:53:50.780Z,-0.80
2023-02-27T03:56:24.079Z,-0.80
2023-02-27T03:58:51.120Z,-0.80
2023-02-27T04:01:18.163Z,-0.80
2023-02-27T04:03:54.508Z,-0.80
2023-02-27T04:06:39.921Z,-0.80
2023-02-27T04:09:21.519Z,-0.80
2023-02-27T04:12:32.605Z,-0.80
2023-02-27T04:15:31.505Z,-0.80
2023-02-27T04:18:38.402Z,-0.80
2023-02-27T04:21:39.404Z,-0.80
2023-02-27T04:24:31.117Z,-0.80
2023-02-27T04:27:27.295Z,-0.90
2023-02-27T04:29:57.592Z,-0.90
2023-02-27T04:32:42.798Z,-0.90
2023-02-27T04:35:20.249Z,-0.90
2023-02-27T04:37:56.995Z,-0.90
2023-02-27T04:40:54.836Z,-0.90
2023-02-27T04:43:24.308Z,-0.90
2023-02-27T04:45:53.293Z,-0.90
2023-02-27T04:48:25.280Z,-0.90
2023-02-27T04:51:08.155Z,-0.90
2023-02-27T04:54:06.317Z,-1.00
2023-02-27T04:56:47.630Z,-1.00
2023-02-27T04:59:22.585Z,-1.00
2023-02-27T05:01:57.512Z,-1.00
2023-02-27T05:04:27.220Z,-1.00
2023-02-27T05:06:56.355Z,-1.00
2023-02-27T05:09:33.175Z,-1.00
2023-02-27T05:12:11.755Z,-1.00
2023-02-27T05:15:05.012Z,-1.00
2023-02-27T05:17:37.497Z,-1.00
2023-02-27T05:20:08.955Z,-1.00
2023-02-27T05:22:51.191Z,-1.10
2023-02-27T05:25:36.933Z,-1.00
2023-02-27T05:28:18.740Z,-1.00
2023-02-27T05:31:06.888Z,-1.00
2023-02-27T05:33:41.356Z,-1.00
2023-02-27T05:36:38.905Z,-1.00
2023-02-27T05:39:09.337Z,-1.00
2023-02-27T05:41:50.689Z,-0.90
2023-02-27T05:44:21.254Z,-1.00
2023-02-27T05:47:00.833Z,-1.00
2023-02-27T05:49:52.045Z,-1.00
2023-02-27T05:52:23.131Z,-1.00
2023-02-27T05:54:58.807Z,-0.80
2023-02-27T05:57:47.840Z,-1.00
2023-02-27T06:00:23.510Z,-1.00
2023-02-27T06:02:50.529Z,-1.00
2023-02-27T06:05:19.367Z,-1.00
2023-02-27T06:07:46.307Z,-0.90
2023-02-27T06:10:16.501Z,-0.90
2023-02-27T06:12:43.378Z,-0.90
2023-02-27T06:15:10.805Z,-0.90
2023-02-27T06:17:38.957Z,-0.90
2023-02-27T06:20:09.880Z,-0.90
2023-02-27T06:22:36.756Z,-0.90
2023-02-27T06:25:04.160Z,-0.90
2023-02-27T06:27:31.077Z,-0.90
2023-02-27T06:29:57.874Z,-0.90
2023-02-27T06:32:25.861Z,-0.90
2023-02-27T06:34:53.232Z,-0.90
2023-02-27T06:37:21.640Z,-0.90
2023-02-27T06:39:48.572Z,-0.80
2023-02-27T06:42:15.566Z,-0.90
2023-02-27T06:44:42.448Z,-0.90
2023-02-27T06:47:09.620Z,-0.90
2023-02-27T06:49:36.487Z,-0.80
2023-02-27T06:52:03.327Z,-0.90
2023-02-27T06:54:30.263Z,-0.90
2023-02-27T06:56:57.296Z,-0.80
2023-02-27T06:59:24.130Z,-0.80
2023-02-27T07:01:50.934Z,-0.80
2023-02-27T07:04:18.510Z,-0.70
2023-02-27T07:07:36.275Z,-0.70
2023-02-27T07:09:32.786Z,-0.70
2023-02-27T07:11:59.742Z,-0.20
2023-02-27T07:14:26.524Z,-0.60
2023-02-27T07:16:56.066Z,-0.50
2023-02-27T07:19:24.084Z,-0.40
2023-02-27T07:21:51.329Z,-0.30
2023-02-27T07:24:18.287Z,-0.30
2023-02-27T07:26:45.069Z,-0.20
2023-02-27T07:29:11.957Z,-0.10
2023-02-27T07:31:42.130Z,0.00
2023-02-27T07:34:11.776Z,0.00
2023-02-27T07:36:39.055Z,0.10
2023-02-27T07:39:06.238Z,0.40
2023-02-27T07:41:33.108Z,0.20
2023-02-27T07:44:00.322Z,0.20
2023-02-27T07:46:27.946Z,0.30
2023-02-27T07:48:55.518Z,0.70
2023-02-27T07:51:22.683Z,0.40
2023-02-27T07:53:49.513Z,0.40
2023-02-27T07:56:16.374Z,0.50
2023-02-27T07:58:43.206Z,0.70
2023-02-27T08:01:10.304Z,0.60
2023-02-27T08:03:37.136Z,0.60
2023-02-27T08:06:03.980Z,0.70
2023-02-27T08:08:30.922Z,0.70
2023-02-27T08:10:58.582Z,0.70
2023-02-27T08:13:55.684Z,0.80
2023-02-27T08:16:12.784Z,0.80
2023-02-27T08:18:39.698Z,0.80
2023-02-27T08:21:06.687Z,0.90
2023-02-27T08:23:34.635Z,0.90
2023-02-27T08:26:02.480Z,0.90
2023-02-27T08:28:29.328Z,1.00
2023-02-27T08:30:56.822Z,1.00
2023-02-27T08:33:25.053Z,1.20
2023-02-27T08:35:54.447Z,1.10
2023-02-27T08:38:21.709Z,1.30
2023-02-27T08:40:53.318Z,1.20
2023-02-27T08:43:21.446Z,1.30
2023-02-27T08:45:49.241Z,1.30
2023-02-27T08:48:17.729Z,1.40
2023-02-27T08:50:46.040Z,1.50
2023-02-27T08:53:13.831Z,1.60
2023-02-27T08:55:41.097Z,1.60
2023-02-27T08:58:08.440Z,1.70
2023-02-27T09:00:35.418Z,1.80
2023-02-27T09:03:02.358Z,1.90
2023-02-27T09:05:29.383Z,2.00
2023-02-27T09:07:57.313Z,2.00
2023-02-27T09:10:24.285Z,2.10
2023-02-27T09:12:51.169Z,2.10
2023-02-27T09:15:18.209Z,2.20
2023-02-27T09:17:45.208Z,2.30
2023-02-27T09:20:12.703Z,2.50
2023-02-27T09:22:39.934Z,2.60
2023-02-27T09:25:07.429Z,2.70
2023-02-27T09:27:35.526Z,2.80
2023-02-27T09:30:02.445Z,2.90
2023-02-27T09:32:29.489Z,3.00
2023-02-27T09:34:56.641Z,3.20
2023-02-27T09:37:25.049Z,3.20
2023-02-27T09:39:51.939Z,3.30
2023-02-27T09:42:19.974Z,3.50
2023-02-27T09:44:53.760Z,3.50
2023-02-27T09:47:25.598Z,3.50
2023-02-27T09:50:00.886Z,3.50
2023-02-27T09:52:29.707Z,3.40
2023-02-27T09:54:56.991Z,3.30
2023-02-27T09:57:52.214Z,3.30
2023-02-27T10:00:48.403Z,3.30
2023-02-27T10:03:21.222Z,3.30
2023-02-27T10:05:59.262Z,3.40
2023-02-27T10:08:53.790Z,3.40
2023-02-27T10:11:31.845Z,3.40
2023-02-27T10:14:09.734Z,3.50
2023-02-27T10:16:37.848Z,3.50
2023-02-27T10:19:16.254Z,3.70
2023-02-27T10:21:51.890Z,3.60
2023-02-27T10:24:27.358Z,3.70
2023-02-27T10:26:57.041Z,3.80
2023-02-27T10:29:41.630Z,3.90
2023-02-27T10:32:18.488Z,3.90
2023-02-27T10:34:52.897Z,4.00
2023-02-27T10:37:22.830Z,4.10
2023-02-27T10:39:58.775Z,4.20
2023-02-27T10:42:31.538Z,4.20
2023-02-27T10:44:59.454Z,4.30
2023-02-27T10:47:27.272Z,4.30
2023-02-27T10:49:57.220Z,4.40
2023-02-27T10:52:24.503Z,4.50
2023-02-27T10:54:51.494Z,4.60
2023-02-27T10:57:18.418Z,4.70
2023-02-27T10:59:53.608Z,4.80
2023-02-27T11:02:26.599Z,4.90
2023-02-27T11:04:56.457Z,5.20
2023-02-27T11:07:31.775Z,5.40
2023-02-27T11:10:02.999Z,5.70
2023-02-27T11:12:34.953Z,5.70
2023-02-27T11:15:22.084Z,5.80
2023-02-27T11:17:49.344Z,5.90
2023-02-27T11:20:37.668Z,6.00
2023-02-27T11:23:23.169Z,6.00
2023-02-27T11:25:51.306Z,6.10
2023-02-27T11:28:29.520Z,6.10
2023-02-27T11:31:14.601Z,6.20
2023-02-27T11:33:50.708Z,6.20
2023-02-27T11:36:18.089Z,6.20
2023-02-27T11:38:55.644Z,6.20
2023-02-27T11:41:34.107Z,6.10
2023-02-27T11:44:03.261Z,6.40
2023-02-27T11:46:47.556Z,6.70
2023-02-27T11:49:24.380Z,6.90
2023-02-27T11:52:06.571Z,7.30
2023-02-27T11:54:46.842Z,8.00
2023-02-27T11:57:38.088Z,8.00
2023-02-27T12:00:26.359Z,8.20
2023-02-27T12:03:12.634Z,8.50
2023-02-27T12:05:51.045Z,8.10
2023-02-27T12:08:21.108Z,7.70
2023-02-27T12:11:18.738Z,7.30
2023-02-27T12:13:51.217Z,7.10
2023-02-27T12:16:27.249Z,6.80
2023-02-27T12:19:01.877Z,7.20
2023-02-27T12:21:33.500Z,8.40
2023-02-27T12:24:03.268Z,9.40
2023-02-27T12:26:37.444Z,10.60
2023-02-27T12:29:25.494Z,11.50
2023-02-27T12:32:20.045Z,11.60
2023-02-27T12:34:52.034Z,11.00
2023-02-27T12:37:25.366Z,11.10
2023-02-27T12:39:54.942Z,10.60
2023-02-27T12:42:27.599Z,10.10
2023-02-27T12:45:21.426Z,10.40
2023-02-27T12:48:23.416Z,11.40
2023-02-27T12:50:58.668Z,12.80
2023-02-27T12:53:45.585Z,13.70
2023-02-27T12:56:18.853Z,14.50
2023-02-27T12:59:15.773Z,14.80
2023-02-27T13:01:51.819Z,14.40
2023-02-27T13:04:27.635Z,14.60
2023-02-27T13:07:17.672Z,15.00
2023-02-27T13:09:57.429Z,14.90
2023-02-27T13:12:36.297Z,15.00
2023-02-27T13:15:30.698Z,15.30
2023-02-27T13:18:16.099Z,16.00
2023-02-27T13:21:00.454Z,16.10
2023-02-27T13:23:47.755Z,15.90
2023-02-27T13:26:23.045Z,16.00
2023-02-27T13:28:51.619Z,15.60
2023-02-27T13:31:30.054Z,15.50
2023-02-27T13:34:25.377Z,15.50
2023-02-27T13:37:03.502Z,15.70
2023-02-27T13:39:45.971Z,15.90
2023-02-27T13:42:29.010Z,15.00
2023-02-27T13:45:04.841Z,13.80
2023-02-27T13:48:01.337Z,12.90
2023-02-27T13:50:28.259Z,13.10
2023-02-27T13:52:55.455Z,13.30
2023-02-27T13:55:32.167Z,13.40
2023-02-27T13:58:00.781Z,13.40
2023-02-27T14:00:30.436Z,12.80
2023-02-27T14:03:00.922Z,12.50
2023-02-27T14:05:38.848Z,12.10
2023-02-27T14:08:14.594Z,11.90
2023-02-27T14:11:02.783Z,12.20
2023-02-27T14:13:52.178Z,13.20
2023-02-27T14:16:38.008Z,14.40
2023-02-27T14:19:26.685Z,14.90
2023-02-27T14:21:56.609Z,15.50
2023-02-27T14:24:41.384Z,16.10
2023-02-27T14:27:26.681Z,16.40
2023-02-27T14:29:57.333Z,16.50
2023-02-27T14:32:30.561Z,15.90
2023-02-27T14:34:57.653Z,16.00
2023-02-27T14:37:26.506Z,16.50
2023-02-27T14:39:55.277Z,16.70
2023-02-27T14:42:47.040Z,16.30
2023-02-27T14:45:25.955Z,15.30
2023-02-27T14:47:53.156Z,14.00
2023-02-27T14:50:28.423Z,13.10
2023-02-27T14:52:55.844Z,12.50
2023-02-27T14:55:29.978Z,11.80
2023-02-27T14:58:17.305Z,11.20
2023-02-27T15:00:50.590Z,10.40
2023-02-27T15:03:24.270Z,10.10
2023-02-27T15:05:54.192Z,9.80
2023-02-27T15:08:25.021Z,9.70
2023-02-27T15:10:54.401Z,9.70
2023-02-27T15:13:34.880Z,9.90
2023-02-27T15:16:22.856Z,10.20
2023-02-27T15:18:52.323Z,10.60
2023-02-27T15:21:21.594Z,10.40
2023-02-27T15:23:59.426Z,10.10
2023-02-27T15:26:31.365Z,9.90
2023-02-27T15:28:59.960Z,9.90
2023-02-27T15:31:30.169Z,9.90
2023-02-27T15:33:59.290Z,9.80
2023-02-27T15:36:35.474Z,9.50
2023-02-27T15:39:27.070Z,9.40
2023-02-27T15:41:57.081Z,9.50
2023-02-27T15:44:29.427Z,9.50
2023-02-27T15:46:57.570Z,9.40
2023-02-27T15:49:25.454Z,9.30
2023-02-27T15:52:02.259Z,9.10
2023-02-27T15:54:33.935Z,9.00
2023-02-27T15:57:03.560Z,8.90
2023-02-27T15:59:36.195Z,8.80
2023-02-27T16:02:06.171Z,8.60
2023-02-27T16:04:34.713Z,8.50
2023-02-27T16:07:07.464Z,8.40
2023-02-27T16:09:36.532Z,8.20
2023-02-27T16:12:29.244Z,7.90
2023-02-27T16:15:23.517Z,7.80
2023-02-27T16:17:57.623Z,7.70
2023-02-27T16:20:36.518Z,7.60
2023-02-27T16:23:17.021Z,7.60
2023-02-27T16:26:04.610Z,7.60
2023-02-27T16:28:34.499Z,7.60
2023-02-27T16:31:02.505Z,7.60
2023-02-27T16:33:33.124Z,7.50
2023-02-27T16:36:17.250Z,7.40
2023-02-27T16:38:44.861Z,7.30
2023-02-27T16:41:16.232Z,7.20
2023-02-27T16:43:45.074Z,7.20
2023-02-27T16:46:20.489Z,7.20
2023-02-27T16:48:53.595Z,7.00
2023-02-27T16:51:24.153Z,6.90
2023-02-27T16:53:52.615Z,6.90
2023-02-27T16:56:35.682Z,6.80
2023-02-27T16:59:04.187Z,6.70
2023-02-27T17:01:33.879Z,6.70
2023-02-27T17:04:02.027Z,6.60
2023-02-27T17:06:30.188Z,6.50
2023-02-27T17:08:58.011Z,6.40
2023-02-27T17:11:24.950Z,6.40
2023-02-27T17:13:51.921Z,6.30
2023-02-27T17:16:18.987Z,6.40
2023-02-27T17:18:46.079Z,6.20
2023-02-27T17:21:13.747Z,6.20
2023-02-27T17:23:42.001Z,6.10
2023-02-27T17:26:08.936Z,6.00
2023-02-27T17:28:35.967Z,6.00
2023-02-27T17:31:15.427Z,5.90
2023-02-27T17:33:43.294Z,5.80
2023-02-27T17:36:15.182Z,5.80
2023-02-27T17:38:42.288Z,5.70
2023-02-27T17:41:10.978Z,5.70
2023-02-27T17:43:37.985Z,6.00
2023-02-27T17:46:10.013Z,5.60
2023-02-27T17:48:38.365Z,5.60
2023-02-27T17:51:06.791Z,5.50
2023-02-27T17:53:35.098Z,5.50
2023-02-27T17:56:02.398Z,5.40
2023-02-27T17:58:29.799Z,5.40
2023-02-27T18:01:13.916Z,5.40
2023-02-27T18:03:41.400Z,5.30
2023-02-27T18:06:10.757Z,5.30
2023-02-27T18:08:37.772Z,5.20
2023-02-27T18:11:09.627Z,5.20
2023-02-27T18:13:36.846Z,5.10
2023-02-27T18:16:03.892Z,5.10
2023-02-27T18:18:30.867Z,5.10
2023-02-27T18:21:02.451Z,5.50
2023-02-27T18:23:29.775Z,5.00
2023-02-27T18:25:57.853Z,4.90
2023-02-27T18:28:25.862Z,4.90
2023-02-27T18:30:53.348Z,4.80
2023-02-27T18:33:23.359Z,4.80
2023-02-27T18:35:51.316Z,4.80
2023-02-27T18:38:18.257Z,4.80
2023-02-27T18:40:45.318Z,4.90
2023-02-27T18:43:13.841Z,4.90
2023-02-27T18:45:41.199Z,4.90
2023-02-27T18:48:08.580Z,5.00
2023-02-27T18:50:36.508Z,4.90
2023-02-27T18:53:03.892Z,4.90
2023-02-27T18:55:30.893Z,5.20
2023-02-27T18:57:58.224Z,5.00
2023-02-27T19:00:25.360Z,4.90
2023-02-27T19:02:52.277Z,4.90
2023-02-27T19:05:19.569Z,4.90
2023-02-27T19:07:47.255Z,4.80
2023-02-27T19:10:15.065Z,4.80
2023-02-27T19:12:42.613Z,4.80
2023-02-27T19:15:10.828Z,4.80
2023-02-27T19:17:37.965Z,4.70
2023-02-27T19:20:06.944Z,4.70
2023-02-27T19:22:34.154Z,4.60
2023-02-27T19:25:01.335Z,4.60
2023-02-27T19:27:28.328Z,4.90
2023-02-27T19:29:55.206Z,4.60
2023-02-27T19:32:22.642Z,4.60
2023-02-27T19:34:49.725Z,4.60
2023-02-27T19:37:16.853Z,4.60
2023-02-27T19:39:44.042Z,4.60
2023-02-27T19:42:11.386Z,4.60
2023-02-27T19:44:39.767Z,4.60
2023-02-27T19:47:07.038Z,4.80
2023-02-27T19:49:34.087Z,4.50
2023-02-27T19:52:02.919Z,4.50
2023-02-27T19:54:30.621Z,4.40
2023-02-27T19:56:57.662Z,4.40
2023-02-27T19:59:24.860Z,4.40
2023-02-27T20:01:52.692Z,4.30
2023-02-27T20:04:19.908Z,4.30
2023-02-27T20:06:50.201Z,4.40
2023-02-27T20:09:18.295Z,4.30
2023-02-27T20:11:46.226Z,4.20
2023-02-27T20:14:15.224Z,4.10
2023-02-27T20:16:43.449Z,4.10
2023-02-27T20:19:14.011Z,4.10
2023-02-27T20:21:41.330Z,4.10
2023-02-27T20:24:10.462Z,4.10
2023-02-27T20:26:40.333Z,4.10
2023-02-27T20:29:11.477Z,4.10
2023-02-27T20:31:40.116Z,4.10
2023-02-27T20:34:10.885Z,4.10
2023-02-27T20:36:39.604Z,4.50
2023-02-27T20:39:08.071Z,4.10
2023-02-27T20:41:35.470Z,4.10
2023-02-27T20:44:03.150Z,4.10
2023-02-27T20:46:31.318Z,4.10
2023-02-27T20:49:00.435Z,4.10
2023-02-27T20:51:30.118Z,4.00
2023-02-27T20:53:59.832Z,4.00
2023-02-27T20:56:29.221Z,4.00
2023-02-27T20:58:57.241Z,4.00
2023-02-27T21:01:24.174Z,4.10
2023-02-27T21:03:51.270Z,4.00
2023-02-27T21:06:19.368Z,4.00
2023-02-27T21:08:49.127Z,4.00
2023-02-27T21:11:19.526Z,4.00
2023-02-27T21:13:47.231Z,4.00
2023-02-27T21:16:16.089Z,4.00
2023-02-27T21:18:43.598Z,4.10
2023-02-27T21:21:14.562Z,4.00
2023-02-27T21:23:41.648Z,4.00
2023-02-27T21:26:09.377Z,4.10
2023-02-27T21:28:47.655Z,4.30
2023-02-27T21:31:16.690Z,4.10
2023-02-27T21:33:44.195Z,4.40
2023-02-27T21:36:12.373Z,4.10
2023-02-27T21:38:40.167Z,4.10
2023-02-27T21:41:11.404Z,4.30
2023-02-27T21:43:40.596Z,4.10
2023-02-27T21:46:09.918Z,4.10
2023-02-27T21:48:37.164Z,4.10
2023-02-27T21:51:04.738Z,4.00
2023-02-27T21:53:32.079Z,4.00
2023-02-27T21:56:10.584Z,4.00
2023-02-27T21:58:38.333Z,4.00
2023-02-27T22:01:16.637Z,4.00
2023-02-27T22:03:44.834Z,4.00
2023-02-27T22:06:12.778Z,4.30
2023-02-27T22:08:39.890Z,4.10
2023-02-27T22:11:07.185Z,4.00
2023-02-27T22:13:35.108Z,4.00
2023-02-27T22:16:06.902Z,4.00
2023-02-27T22:18:34.410Z,4.00
2023-02-27T22:21:02.262Z,3.90
2023-02-27T22:23:29.254Z,3.90
2023-02-27T22:26:10.648Z,3.90
2023-02-27T22:28:39.819Z,4.00
2023-02-27T22:31:11.004Z,3.90
2023-02-27T22:33:38.877Z,3.90
2023-02-27T22:36:11.212Z,3.90
2023-02-27T22:38:38.262Z,3.90
2023-02-27T22:41:11.565Z,3.90
2023-02-27T22:43:39.776Z,3.90
2023-02-27T22:46:11.281Z,3.90
2023-02-27T22:48:39.114Z,4.10
2023-02-27T22:51:12.762Z,3.90
2023-02-27T22:53:40.718Z,3.90
2023-02-27T22:56:10.826Z,4.10
2023-02-27T22:58:39.403Z,3.90
2023-02-27T23:01:17.070Z,4.10
2023-02-27T23:03:45.761Z,3.90
2023-02-27T23:06:18.479Z,4.10
2023-02-27T23:08:45.582Z,3.90
2023-02-27T23:11:14.204Z,3.90
2023-02-27T23:13:41.452Z,4.10
2023-02-27T23:16:13.843Z,3.90
2023-02-27T23:18:52.166Z,3.90
2023-02-27T23:21:21.754Z,3.90
2023-02-27T23:23:48.547Z,3.90
2023-02-27T23:26:16.213Z,4.10
2023-02-27T23:28:43.039Z,4.20
2023-02-27T23:31:10.205Z,3.90
2023-02-27T23:33:37.241Z,4.00
2023-02-27T23:36:04.949Z,3.90
2023-02-27T23:38:31.924Z,3.90
2023-02-27T23:41:09.418Z,3.90
2023-02-27T23:43:36.891Z,3.90
2023-02-27T23:46:15.665Z,3.90
2023-02-27T23:48:43.696Z,3.90
2023-02-27T23:51:11.777Z,3.90
2023-02-27T23:53:40.428Z,4.10
2023-02-27T23:56:22.819Z,3.90
2023-02-27T23:58:54.915Z,3.90
